createdAt,value
2023-08-11T00:05:56.313Z,5.10
2023-08-11T00:11:59.860Z,4.70
2023-08-11T00:18:04.994Z,5.43
2023-08-11T00:24:08.706Z,5.18
2023-08-11T00:30:12.796Z,5.40
2023-08-11T00:36:18.227Z,5.78
2023-08-11T00:42:22.169Z,5.10
2023-08-11T00:48:25.658Z,4.65
2023-08-11T00:54:31.393Z,5.00
2023-08-11T01:00:35.012Z,4.80
2023-08-11T01:06:42.205Z,4.78
2023-08-11T01:12:55.351Z,4.47
2023-08-11T01:18:59.978Z,4.68
2023-08-11T01:25:05.702Z,4.60
2023-08-11T01:31:09.870Z,4.57
2023-08-11T01:37:13.786Z,4.47
2023-08-11T01:43:19.806Z,4.70
2023-08-11T01:49:24.907Z,4.45
2023-08-11T01:55:30.253Z,4.20
2023-08-11T02:01:35.309Z,4.30
2023-08-11T02:07:39.123Z,4.50
2023-08-11T02:13:42.595Z,4.30
2023-08-11T02:19:47.836Z,4.43
2023-08-11T02:25:51.320Z,4.60
2023-08-11T02:31:54.877Z,4.03
2023-08-11T02:37:59.745Z,4.45
2023-08-11T02:44:03.527Z,4.00
2023-08-11T02:50:07.699Z,4.30
2023-08-11T02:56:16.254Z,3.97
2023-08-11T03:02:19.848Z,4.40
2023-08-11T03:08:23.320Z,4.07
2023-08-11T03:14:28.207Z,4.20
2023-08-11T03:20:32.121Z,4.28
2023-08-11T03:26:35.674Z,4.22
2023-08-11T03:32:40.987Z,4.30
2023-08-11T03:38:44.553Z,4.55
2023-08-11T03:44:48.070Z,4.65
2023-08-11T03:50:53.219Z,4.45
2023-08-11T03:56:56.813Z,4.05
2023-08-11T04:03:00.797Z,4.35
2023-08-11T04:09:05.935Z,4.10
2023-08-11T04:15:09.796Z,4.53
2023-08-11T04:21:13.201Z,4.40
2023-08-11T04:27:18.571Z,4.28
2023-08-11T04:33:22.272Z,4.15
2023-08-11T04:39:26.189Z,4.80
2023-08-11T04:45:31.141Z,4.28
2023-08-11T04:51:34.714Z,4.65
2023-08-11T04:57:38.371Z,4.97
2023-08-11T05:03:44.075Z,4.40
2023-08-11T05:09:48.004Z,4.57
2023-08-11T05:15:53.766Z,4.35
2023-08-11T05:21:58.811Z,4.35
2023-08-11T05:28:02.288Z,3.75
2023-08-11T05:34:06.165Z,4.30
2023-08-11T05:40:11.763Z,3.80
2023-08-11T05:46:15.515Z,4.03
2023-08-11T05:52:19.206Z,5.05
2023-08-11T05:58:24.370Z,4.15
2023-08-11T06:04:28.065Z,3.60
2023-08-11T06:10:32.037Z,3.78
2023-08-11T06:16:37.113Z,3.78
2023-08-11T06:22:40.585Z,3.35
2023-08-11T06:28:44.027Z,3.60
2023-08-11T06:34:49.006Z,3.50
2023-08-11T06:40:53.132Z,3.35
2023-08-11T06:46:56.599Z,3.60
2023-08-11T06:53:01.651Z,3.65
2023-08-11T06:59:05.197Z,3.28
2023-08-11T07:05:08.876Z,3.90
2023-08-11T07:11:13.775Z,3.88
2023-08-11T07:17:17.291Z,3.67
2023-08-11T07:23:20.880Z,5.90
2023-08-11T07:29:26.009Z,4.32
2023-08-11T07:35:29.540Z,3.83
2023-08-11T07:41:33.227Z,8.93
2023-08-11T07:47:38.160Z,5.10
2023-08-11T07:53:41.859Z,3.95
2023-08-11T07:59:45.504Z,2.65
2023-08-11T08:05:50.468Z,2.60
2023-08-11T08:11:53.985Z,2.38
2023-08-11T08:17:57.571Z,2.80
2023-08-11T08:24:05.415Z,2.88
2023-08-11T08:30:10.656Z,3.25
2023-08-11T08:36:14.232Z,3.30
2023-08-11T08:42:19.908Z,3.55
2023-08-11T08:48:24.805Z,3.60
2023-08-11T08:54:28.914Z,3.42
2023-08-11T09:00:34.380Z,3.83
2023-08-11T09:06:38.266Z,3.50
2023-08-11T09:12:43.437Z,3.53
2023-08-11T09:18:48.995Z,4.10
2023-08-11T09:24:52.594Z,3.47
2023-08-11T09:30:56.177Z,3.33
2023-08-11T09:37:01.152Z,2.85
2023-08-11T09:43:04.716Z,2.90
2023-08-11T09:49:08.658Z,3.22
2023-08-11T09:55:14.450Z,3.60
2023-08-11T10:01:20.902Z,2.90
2023-08-11T10:07:27.073Z,2.70
2023-08-11T10:13:32.048Z,3.00
2023-08-11T10:19:35.944Z,2.55
2023-08-11T10:25:39.829Z,2.55
2023-08-11T10:31:55.987Z,2.67
2023-08-11T10:37:59.862Z,2.88
2023-08-11T10:44:03.687Z,2.50
2023-08-11T10:50:11.624Z,2.97
2023-08-11T10:56:15.790Z,2.63
2023-08-11T11:02:21.806Z,2.50
2023-08-11T11:08:26.666Z,2.95
2023-08-11T11:14:31.301Z,2.20
2023-08-11T11:20:36.021Z,2.30
2023-08-11T11:26:43.679Z,2.78
2023-08-11T11:32:47.371Z,2.25
2023-08-11T11:38:51.368Z,2.55
2023-08-11T11:44:56.607Z,2.58
2023-08-11T11:51:01.494Z,2.55
2023-08-11T11:57:09.792Z,2.35
2023-08-11T12:03:15.823Z,2.35
2023-08-11T12:09:26.791Z,2.25
2023-08-11T12:15:31.285Z,2.78
2023-08-11T12:21:36.126Z,2.67
2023-08-11T12:27:40.052Z,2.33
2023-08-11T12:33:43.716Z,2.65
2023-08-11T12:39:48.727Z,2.75
2023-08-11T12:45:52.251Z,2.33
2023-08-11T12:51:56.096Z,2.80
2023-08-11T12:58:02.160Z,2.42
2023-08-11T13:04:07.102Z,2.35
2023-08-11T13:10:11.752Z,2.40
2023-08-11T13:16:17.219Z,2.53
2023-08-11T13:22:20.769Z,2.30
2023-08-11T13:28:24.245Z,2.10
2023-08-11T13:34:29.785Z,2.13
2023-08-11T13:40:33.280Z,2.25
2023-08-11T13:46:36.767Z,1.73
2023-08-11T13:52:41.626Z,2.03
2023-08-11T13:58:45.106Z,1.73
2023-08-11T14:04:49.114Z,1.33
2023-08-11T14:10:55.037Z,1.50
2023-08-11T14:16:58.586Z,1.38
2023-08-11T14:23:02.271Z,1.98
2023-08-11T14:29:07.706Z,1.80
2023-08-11T14:35:11.642Z,2.10
2023-08-11T14:41:15.210Z,1.75
2023-08-11T14:47:20.057Z,1.60
2023-08-11T14:53:25.033Z,1.80
2023-08-11T14:59:28.868Z,1.45
2023-08-11T15:05:33.748Z,1.48
2023-08-11T15:11:37.321Z,1.50
2023-08-11T15:17:40.848Z,1.48
2023-08-11T15:23:45.930Z,1.20
2023-08-11T15:29:49.401Z,1.60
2023-08-11T15:35:53.174Z,1.25
2023-08-11T15:41:57.979Z,1.63
2023-08-11T15:48:01.523Z,1.35
2023-08-11T15:54:05.073Z,1.10
2023-08-11T16:00:11.530Z,0.80
2023-08-11T16:06:14.967Z,1.15
2023-08-11T16:12:18.554Z,1.15
2023-08-11T16:18:23.403Z,0.90
2023-08-11T16:24:26.882Z,1.00
2023-08-11T16:30:30.342Z,0.82
2023-08-11T16:36:35.158Z,0.95
2023-08-11T16:42:38.696Z,0.70
2023-08-11T16:48:44.450Z,0.90
2023-08-11T16:54:49.330Z,0.63
2023-08-11T17:00:56.077Z,0.70
2023-08-11T17:06:59.898Z,0.60
2023-08-11T17:13:04.773Z,0.82
2023-08-11T17:19:08.213Z,0.70
2023-08-11T17:25:12.134Z,0.65
2023-08-11T17:31:17.099Z,0.70
2023-08-11T17:37:20.674Z,1.00
2023-08-11T17:43:24.112Z,0.65
2023-08-11T17:49:29.054Z,0.65
2023-08-11T17:55:32.467Z,0.68
2023-08-11T18:01:36.316Z,0.70
2023-08-11T18:07:41.182Z,0.68
2023-08-11T18:13:44.737Z,0.70
2023-08-11T18:19:48.424Z,1.13
2023-08-11T18:25:53.302Z,0.70
2023-08-11T18:31:56.766Z,0.70
2023-08-11T18:38:00.266Z,0.60
2023-08-11T18:44:05.462Z,0.68
2023-08-11T18:50:09.352Z,1.15
2023-08-11T18:56:12.779Z,0.77
2023-08-11T19:02:17.846Z,0.80
2023-08-11T19:08:21.309Z,1.02
2023-08-11T19:14:24.788Z,0.70
2023-08-11T19:20:29.771Z,0.70
2023-08-11T19:26:33.284Z,0.80
2023-08-11T19:32:36.963Z,0.90
2023-08-11T19:38:44.010Z,1.25
2023-08-11T19:44:47.441Z,1.27
2023-08-11T19:50:51.490Z,0.85
2023-08-11T19:56:56.362Z,1.30
2023-08-11T20:03:00.010Z,1.42
2023-08-11T20:09:03.632Z,1.00
2023-08-11T20:15:09.296Z,1.50
2023-08-11T20:21:12.745Z,1.15
2023-08-11T20:27:16.200Z,1.40
2023-08-11T20:33:21.094Z,1.20
2023-08-11T20:39:24.544Z,1.30
2023-08-11T20:45:31.136Z,1.67
2023-08-11T20:51:36.119Z,1.80
2023-08-11T20:57:39.588Z,1.40
2023-08-11T21:03:43.108Z,1.45
2023-08-11T21:09:47.995Z,1.75
2023-08-11T21:15:51.599Z,1.60
2023-08-11T21:21:55.148Z,1.50
2023-08-11T21:28:00.030Z,1.67
2023-08-11T21:34:06.327Z,1.40
2023-08-11T21:40:10.846Z,1.30
2023-08-11T21:46:15.694Z,1.63
2023-08-11T21:52:19.201Z,1.80
2023-08-11T21:58:22.930Z,1.80
2023-08-11T22:04:27.872Z,1.95
2023-08-11T22:10:31.345Z,2.05
2023-08-11T22:16:35.059Z,2.15
2023-08-11T22:22:40.041Z,2.80
2023-08-11T22:28:43.566Z,3.13
2023-08-11T22:34:52.905Z,3.13
2023-08-11T22:40:57.911Z,3.30
2023-08-11T22:47:01.346Z,3.42
2023-08-11T22:53:05.583Z,3.13
2023-08-11T22:59:10.395Z,3.58
2023-08-11T23:05:13.950Z,3.67
2023-08-11T23:11:17.409Z,3.75
2023-08-11T23:17:23.484Z,3.78
2023-08-11T23:23:27.225Z,4.00
2023-08-11T23:29:30.678Z,4.03
2023-08-11T23:35:39.716Z,3.40
2023-08-11T23:41:43.142Z,3.05
2023-08-11T23:47:46.701Z,2.83
2023-08-11T23:53:51.590Z,1.90
2023-08-11T23:59:55.414Z,2.35
